Airfield :
LOGIN :

Register | Disclaimer

   EN    FR    IT 

 










Legend :    VFR   Marginal VFR   IFR   Intensive IFR   Very Intensive IFR
Visi :
Ceiling :
>= 8 km
>= 3000ft
5 to 8 km
1000 to 3000 ft
1500m to 5 km
500 to 1000 ft
800 to 1500m
200 to 500 ft
< 800m
< 200 ft
Symbols :   Thunderstorms  Fog  Heavy snow  Heavy precipitations  Wind > 20 kt
SIGMETs :     Misc.  Thunderstorms  Icing  Turbulence  Mountain Waves  Volcanic Ashes







- Airport Elevation : 359 ft
- IATA code : BVA
- Download approach charts


LFOB - Beauvais

CURRENT METAR :
  • 252100Z AUTO 04015KT CAVOK 10/01 Q1020 NOSIG

EXPIRED METARs :
  • 252030Z AUTO 04015KT CAVOK 11/01 Q1020 NOSIG
  • 252000Z AUTO 04014KT CAVOK 11/02 Q1020 NOSIG
  • 251930Z AUTO 04013KT CAVOK 11/02 Q1020 NOSIG
  • 251900Z AUTO 04014KT CAVOK 11/02 Q1019 NOSIG
  • 251830Z AUTO 04015KT CAVOK 12/02 Q1019 NOSIG

TAF TAF LFOB
Valid from the 25 at 18:00 until the 26 at 18:00 UTC


251700Z 2518/2618 06015G25KT CAVOK
BECMG 2518/2521 06014KT
ATIS : +33 3 44 11 49 28
No reported NOTAMs for that airfield.



MET'MAP, your aeronautical weather chart ! - Copyright ORBIFLY December 2007 - Disclaimer

ORBIFLY MET'MAP TEAM :

Programming & Development : Alexandra Zaïnal
Concept & Development : Baudouin d'Aumeries
Co-Development & Prog : Marc-Olivier Méhu
Technical & hardware support : Manuel Goepfert

Contact : metmap@orbifly.com




SOURCES & CREDITS :

   NOAA